createdAt,value
2022-12-01T00:00:04.868Z,7.2
2022-12-01T00:01:08.213Z,7.2
2022-12-01T00:02:12.044Z,7.2
2022-12-01T00:03:16.141Z,7.2
2022-12-01T00:04:20.985Z,7.2
2022-12-01T00:05:24.138Z,7.2
2022-12-01T00:06:27.328Z,7.3
2022-12-01T00:07:30.312Z,7.3
2022-12-01T00:08:33.351Z,7.2
2022-12-01T00:09:36.442Z,7.3
2022-12-01T00:10:38.641Z,7.2
2022-12-01T00:11:42.002Z,7.2
2022-12-01T00:12:44.781Z,7.2
2022-12-01T00:13:47.297Z,7.2
2022-12-01T00:14:49.733Z,7.3
2022-12-01T00:15:53.113Z,7.2
2022-12-01T00:16:56.621Z,7.2
2022-12-01T00:17:59.985Z,7.2
2022-12-01T00:19:02.732Z,7.2
2022-12-01T00:20:06.883Z,7.2
2022-12-01T00:21:09.603Z,7.2
2022-12-01T00:22:12.993Z,7.2
2022-12-01T00:23:15.874Z,7.2
2022-12-01T00:24:18.967Z,7.2
2022-12-01T00:25:22.341Z,7.2
2022-12-01T00:26:25.599Z,7.2
2022-12-01T00:27:29.009Z,7.2
2022-12-01T00:28:32.164Z,7.2
2022-12-01T00:29:35.325Z,7.2
2022-12-01T00:30:38.713Z,7.2
2022-12-01T00:31:41.184Z,7.2
2022-12-01T00:32:43.946Z,7.2
2022-12-01T00:33:46.169Z,7.2
2022-12-01T00:34:49.261Z,7.2
2022-12-01T00:35:53.363Z,7.2
2022-12-01T00:36:56.694Z,7.2
2022-12-01T00:37:59.832Z,7.2
2022-12-01T00:39:02.259Z,7.2
2022-12-01T00:40:05.631Z,7.2
2022-12-01T00:41:08.050Z,7.2
2022-12-01T00:42:13.932Z,7.2
2022-12-01T00:43:16.990Z,7.2
2022-12-01T00:44:20.070Z,7.2
2022-12-01T00:45:22.491Z,7.2
2022-12-01T00:46:25.559Z,7.2
2022-12-01T00:47:28.886Z,7.2
2022-12-01T00:48:31.712Z,7.2
2022-12-01T00:49:34.287Z,7.2
2022-12-01T00:50:37.356Z,7.2
2022-12-01T00:51:41.414Z,7.2
2022-12-01T00:52:44.450Z,7.2
2022-12-01T00:53:47.224Z,7.2
2022-12-01T00:54:50.551Z,7.2
2022-12-01T00:55:53.236Z,7.2
2022-12-01T00:56:56.715Z,7.2
2022-12-01T00:57:59.930Z,7.2
2022-12-01T00:59:03.001Z,7.3
2022-12-01T01:00:05.506Z,7.2
2022-12-01T01:01:08.483Z,7.3
2022-12-01T01:02:11.670Z,7.3
2022-12-01T01:03:14.269Z,7.2
2022-12-01T01:04:17.322Z,7.2
2022-12-01T01:05:19.535Z,7.2
2022-12-01T01:06:22.000Z,7.2
2022-12-01T01:07:26.335Z,7.2
2022-12-01T01:08:29.579Z,7.2
2022-12-01T01:09:32.627Z,7.3
2022-12-01T01:10:35.047Z,7.2
2022-12-01T01:11:38.098Z,7.2
2022-12-01T01:12:41.088Z,7.2
2022-12-01T01:13:43.219Z,7.2
2022-12-01T01:14:45.715Z,7.2
2022-12-01T01:15:48.517Z,7.2
2022-12-01T01:16:52.201Z,7.2
2022-12-01T01:17:55.404Z,7.1
2022-12-01T01:18:58.777Z,7.1
2022-12-01T01:20:01.278Z,7.2
2022-12-01T01:21:04.326Z,7.1
2022-12-01T01:22:06.769Z,7.2
2022-12-01T01:23:10.702Z,7.2
2022-12-01T01:24:13.122Z,7.2
2022-12-01T01:25:16.480Z,7.2
2022-12-01T01:26:19.470Z,7.2
2022-12-01T01:27:22.527Z,7.1
2022-12-01T01:28:25.996Z,7.1
2022-12-01T01:29:28.498Z,7.2
2022-12-01T01:30:31.157Z,7.2
2022-12-01T01:31:34.076Z,7.2
2022-12-01T01:32:37.395Z,7.2
2022-12-01T01:33:40.898Z,7.2
2022-12-01T01:34:43.643Z,7.2
2022-12-01T01:35:46.419Z,7.2
2022-12-01T01:36:49.479Z,7.2
2022-12-01T01:37:52.210Z,7.2
2022-12-01T01:38:56.014Z,7.2
2022-12-01T01:39:58.719Z,7.2
2022-12-01T01:41:01.015Z,7.2
2022-12-01T01:42:04.722Z,7.2
2022-12-01T01:43:08.045Z,7.2
2022-12-01T01:44:11.107Z,7.2
2022-12-01T01:45:13.806Z,7.1
2022-12-01T01:46:17.272Z,7.1
2022-12-01T01:47:21.144Z,7.2
2022-12-01T01:48:24.021Z,7.1
2022-12-01T01:49:26.805Z,7.1
2022-12-01T01:50:29.798Z,7.2
2022-12-01T01:51:32.774Z,7.1
2022-12-01T01:52:35.826Z,7.2
2022-12-01T01:53:38.431Z,7.1
2022-12-01T01:54:42.233Z,7.1
2022-12-01T01:55:44.722Z,7.1
2022-12-01T01:56:47.431Z,7.1
2022-12-01T01:57:50.675Z,7.1
2022-12-01T01:58:54.091Z,7.1
2022-12-01T01:59:57.172Z,7.1
2022-12-01T02:00:59.794Z,7.1
2022-12-01T02:02:03.384Z,7.1
2022-12-01T02:03:06.822Z,7.2
2022-12-01T02:04:09.527Z,7.1
2022-12-01T02:05:12.501Z,7.1
2022-12-01T02:06:15.378Z,7.1
2022-12-01T02:07:17.599Z,7.1
2022-12-01T02:08:20.419Z,7.1
2022-12-01T02:09:23.153Z,7.1
2022-12-01T02:10:26.953Z,7.1
2022-12-01T02:11:29.253Z,7.1
2022-12-01T02:12:32.254Z,7.1
2022-12-01T02:13:34.955Z,7.1
2022-12-01T02:14:37.442Z,7.1
2022-12-01T02:15:39.860Z,7.1
2022-12-01T02:16:43.267Z,7.1
2022-12-01T02:17:46.564Z,7.1
2022-12-01T02:18:49.997Z,7.1
2022-12-01T02:19:52.852Z,7.1
2022-12-01T02:20:55.699Z,7.1
2022-12-01T02:21:58.865Z,7.1
2022-12-01T02:23:01.557Z,7.1
2022-12-01T02:24:04.351Z,7.1
2022-12-01T02:25:06.948Z,7.1
2022-12-01T02:26:11.034Z,7.1
2022-12-01T02:27:14.006Z,7
2022-12-01T02:28:17.197Z,7
2022-12-01T02:29:20.169Z,7
2022-12-01T02:30:23.429Z,7
2022-12-01T02:31:26.205Z,7
2022-12-01T02:32:28.907Z,7
2022-12-01T02:33:31.759Z,7
2022-12-01T02:34:35.193Z,7
2022-12-01T02:35:38.381Z,7
2022-12-01T02:36:40.801Z,7
2022-12-01T02:37:44.075Z,7
2022-12-01T02:38:47.210Z,7
2022-12-01T02:39:50.685Z,7
2022-12-01T02:40:53.798Z,7
2022-12-01T02:41:57.950Z,7
2022-12-01T02:43:00.721Z,7
2022-12-01T02:44:03.224Z,7
2022-12-01T02:45:05.638Z,7
2022-12-01T02:46:08.561Z,7
2022-12-01T02:47:11.759Z,7
2022-12-01T02:48:14.568Z,7
2022-12-01T02:49:16.988Z,7
2022-12-01T02:50:19.402Z,7
2022-12-01T02:51:22.455Z,7
2022-12-01T02:52:25.150Z,7
2022-12-01T02:53:27.974Z,6.9
2022-12-01T02:54:30.195Z,7
2022-12-01T02:55:33.155Z,7
2022-12-01T02:56:36.187Z,7
2022-12-01T02:57:40.322Z,6.9
2022-12-01T02:58:43.195Z,6.9
2022-12-01T02:59:47.178Z,6.9
2022-12-01T03:00:51.581Z,6.9
2022-12-01T03:01:54.896Z,6.9
2022-12-01T03:02:57.591Z,6.9
2022-12-01T03:04:01.072Z,6.9
2022-12-01T03:05:03.581Z,6.9
2022-12-01T03:06:06.642Z,6.9
2022-12-01T03:07:10.353Z,6.9
2022-12-01T03:08:13.483Z,6.9
2022-12-01T03:09:16.375Z,6.9
2022-12-01T03:10:19.354Z,6.9
2022-12-01T03:11:22.037Z,6.9
2022-12-01T03:12:25.180Z,6.9
2022-12-01T03:13:29.254Z,6.9
2022-12-01T03:14:32.257Z,6.9
2022-12-01T03:15:35.457Z,6.9
2022-12-01T03:16:38.337Z,6.8
2022-12-01T03:17:41.194Z,6.8
2022-12-01T03:18:44.046Z,6.8
2022-12-01T03:19:47.644Z,6.8
2022-12-01T03:20:52.316Z,6.8
2022-12-01T03:21:55.087Z,6.8
2022-12-01T03:22:58.481Z,6.8
2022-12-01T03:24:01.798Z,6.8
2022-12-01T03:25:04.875Z,6.8
2022-12-01T03:26:07.951Z,6.8
2022-12-01T03:27:11.276Z,6.8
2022-12-01T03:28:23.363Z,6.8
2022-12-01T03:29:27.449Z,6.8
2022-12-01T03:30:30.525Z,6.8
2022-12-01T03:31:33.578Z,6.8
2022-12-01T03:32:37.360Z,6.8
2022-12-01T03:33:39.309Z,6.9
2022-12-01T03:34:42.564Z,6.8
2022-12-01T03:35:45.614Z,6.8
2022-12-01T03:36:48.589Z,6.8
2022-12-01T03:37:51.366Z,6.8
2022-12-01T03:38:54.127Z,6.7
2022-12-01T03:40:02.422Z,6.7
2022-12-01T03:41:05.235Z,6.7
2022-12-01T03:42:08.376Z,6.7
2022-12-01T03:43:11.635Z,6.7
2022-12-01T03:44:14.724Z,6.7
2022-12-01T03:45:18.864Z,6.7
2022-12-01T03:46:22.435Z,6.6
2022-12-01T03:47:25.810Z,6.6
2022-12-01T03:48:28.893Z,6.6
2022-12-01T03:49:32.278Z,6.6
2022-12-01T03:50:35.487Z,6.6
2022-12-01T03:51:38.339Z,6.5
2022-12-01T03:52:41.660Z,6.6
2022-12-01T03:53:44.174Z,6.6
2022-12-01T03:54:47.014Z,6.5
2022-12-01T03:55:49.445Z,6.5
2022-12-01T03:56:52.715Z,6.5
2022-12-01T03:57:56.448Z,6.5
2022-12-01T03:58:59.575Z,6.5
2022-12-01T04:00:02.887Z,6.5
2022-12-01T04:01:07.035Z,6.5
2022-12-01T04:02:10.554Z,6.5
2022-12-01T04:03:14.736Z,6.5
2022-12-01T04:04:18.424Z,6.5
2022-12-01T04:05:26.196Z,6.5
2022-12-01T04:06:29.624Z,6.5
2022-12-01T04:07:33.445Z,6.5
2022-12-01T04:08:36.670Z,6.5
2022-12-01T04:09:39.479Z,6.5
2022-12-01T04:10:41.990Z,6.5
2022-12-01T04:11:45.695Z,6.5
2022-12-01T04:12:49.081Z,6.5
2022-12-01T04:13:51.575Z,6.5
2022-12-01T04:14:55.282Z,6.5
2022-12-01T04:15:58.695Z,6.5
2022-12-01T04:17:02.820Z,6.5
2022-12-01T04:18:05.601Z,6.5
2022-12-01T04:19:08.653Z,6.5
2022-12-01T04:20:11.075Z,6.5
2022-12-01T04:21:13.650Z,6.5
2022-12-01T04:22:16.231Z,6.5
2022-12-01T04:23:18.726Z,6.5
2022-12-01T04:24:21.496Z,6.5
2022-12-01T04:25:23.907Z,6.5
2022-12-01T04:26:27.342Z,6.5
2022-12-01T04:27:30.110Z,6.5
2022-12-01T04:28:32.976Z,6.5
2022-12-01T04:29:36.305Z,6.5
2022-12-01T04:30:39.273Z,6.5
2022-12-01T04:31:42.569Z,6.5
2022-12-01T04:32:46.918Z,6.5
2022-12-01T04:33:50.269Z,6.5
2022-12-01T04:34:53.389Z,6.5
2022-12-01T04:35:55.394Z,6.4
2022-12-01T04:36:57.539Z,6.4
2022-12-01T04:38:00.448Z,6.4
2022-12-01T04:39:03.238Z,6.4
2022-12-01T04:40:06.023Z,6.4
2022-12-01T04:41:08.785Z,6.3
2022-12-01T04:42:12.177Z,6.3
2022-12-01T04:43:15.016Z,6.3
2022-12-01T04:44:17.250Z,6.3
2022-12-01T04:45:20.092Z,6.3
2022-12-01T04:46:23.347Z,6.3
2022-12-01T04:47:27.025Z,6.3
2022-12-01T04:48:30.841Z,6.2
2022-12-01T04:49:34.001Z,6.3
2022-12-01T04:50:36.594Z,6.2
2022-12-01T04:51:39.455Z,6.2
2022-12-01T04:52:42.290Z,6.2
2022-12-01T04:53:44.734Z,6.2
2022-12-01T04:54:47.898Z,6.2
2022-12-01T04:55:50.710Z,6.2
2022-12-01T04:56:53.685Z,6.2
2022-12-01T04:57:56.883Z,6.2
2022-12-01T04:58:59.684Z,6.2
2022-12-01T05:00:02.744Z,6.2
2022-12-01T05:01:05.729Z,6.2
2022-12-01T05:02:09.775Z,6.2
2022-12-01T05:03:16.242Z,6.2
2022-12-01T05:04:20.315Z,6.2
2022-12-01T05:05:23.118Z,6.2
2022-12-01T05:06:25.547Z,6.2
2022-12-01T05:07:28.871Z,6.2
2022-12-01T05:08:32.348Z,6.2
2022-12-01T05:09:35.144Z,6.2
2022-12-01T05:10:37.633Z,6.2
2022-12-01T05:11:40.634Z,6.2
2022-12-01T05:12:44.235Z,6.2
2022-12-01T05:13:46.934Z,6.2
2022-12-01T05:14:49.509Z,6.1
2022-12-01T05:15:52.920Z,6.1
2022-12-01T05:16:55.408Z,6.1
2022-12-01T05:17:58.104Z,6.1
2022-12-01T05:19:01.108Z,6.1
2022-12-01T05:20:05.303Z,6.1
2022-12-01T05:21:08.080Z,6.1
2022-12-01T05:22:10.572Z,6.1
2022-12-01T05:23:17.940Z,6.1
2022-12-01T05:24:21.271Z,6.1
2022-12-01T05:25:24.249Z,6.1
2022-12-01T05:26:27.602Z,6
2022-12-01T05:27:31.034Z,6
2022-12-01T05:28:33.725Z,6
2022-12-01T05:29:36.887Z,6
2022-12-01T05:30:40.510Z,6
2022-12-01T05:31:44.210Z,6
2022-12-01T05:32:47.523Z,6
2022-12-01T05:33:50.165Z,6
2022-12-01T05:34:53.802Z,6
2022-12-01T05:35:57.675Z,6
2022-12-01T05:37:01.024Z,6
2022-12-01T05:38:08.898Z,6
2022-12-01T05:39:11.861Z,6
2022-12-01T05:40:15.188Z,6
2022-12-01T05:41:17.616Z,6
2022-12-01T05:42:20.695Z,6
2022-12-01T05:43:30.055Z,6
2022-12-01T05:44:33.407Z,6
2022-12-01T05:45:36.234Z,6
2022-12-01T05:46:39.060Z,6
2022-12-01T05:47:41.770Z,6
2022-12-01T05:48:44.339Z,6
2022-12-01T05:49:48.335Z,6
2022-12-01T05:50:51.589Z,6
2022-12-01T05:51:55.693Z,5.9
2022-12-01T05:52:59.020Z,5.9
2022-12-01T05:54:01.894Z,5.9
2022-12-01T05:55:05.226Z,5.9
2022-12-01T05:56:08.038Z,5.9
2022-12-01T05:57:11.093Z,5.9
2022-12-01T05:58:14.261Z,5.9
2022-12-01T05:59:16.491Z,5.9
2022-12-01T06:00:19.892Z,5.9
2022-12-01T06:01:23.223Z,5.8
2022-12-01T06:02:26.362Z,5.8
2022-12-01T06:03:29.369Z,5.9
2022-12-01T06:04:32.149Z,5.8
2022-12-01T06:05:35.099Z,5.9
2022-12-01T06:06:37.811Z,5.8
2022-12-01T06:07:42.140Z,5.9
2022-12-01T06:08:44.573Z,5.8
2022-12-01T06:09:49.003Z,5.8
2022-12-01T06:10:52.361Z,5.8
2022-12-01T06:11:55.771Z,5.8
2022-12-01T06:12:58.884Z,5.8
2022-12-01T06:14:02.204Z,5.8
2022-12-01T06:15:05.065Z,5.8
2022-12-01T06:16:07.858Z,5.8
2022-12-01T06:17:10.919Z,5.8
2022-12-01T06:18:14.036Z,5.8
2022-12-01T06:19:17.306Z,5.7
2022-12-01T06:20:20.719Z,5.8
2022-12-01T06:21:24.066Z,5.7
2022-12-01T06:22:26.909Z,5.7
2022-12-01T06:23:31.795Z,5.7
2022-12-01T06:24:34.765Z,5.7
2022-12-01T06:25:37.549Z,5.8
2022-12-01T06:26:40.539Z,5.8
2022-12-01T06:27:42.957Z,5.7
2022-12-01T06:28:45.709Z,5.7
2022-12-01T06:29:49.431Z,5.7
2022-12-01T06:31:03.865Z,5.8
2022-12-01T06:32:06.562Z,5.8
2022-12-01T06:33:09.807Z,5.8
2022-12-01T06:34:12.294Z,5.8
2022-12-01T06:35:15.378Z,5.8
2022-12-01T06:36:17.876Z,5.8
2022-12-01T06:37:21.198Z,5.8
2022-12-01T06:38:23.639Z,5.8
2022-12-01T06:39:27.493Z,5.8
2022-12-01T06:40:29.906Z,5.8
2022-12-01T06:41:33.013Z,5.8
2022-12-01T06:42:36.256Z,5.8
2022-12-01T06:43:39.309Z,5.8
2022-12-01T06:44:42.668Z,5.8
2022-12-01T06:45:46.364Z,5.9
2022-12-01T06:46:49.387Z,5.9
2022-12-01T06:47:52.099Z,5.9
2022-12-01T06:48:54.940Z,5.8
2022-12-01T06:49:57.415Z,5.8
2022-12-01T06:51:00.799Z,5.9
2022-12-01T06:52:02.946Z,5.9
2022-12-01T06:53:05.789Z,5.9
2022-12-01T06:54:08.231Z,5.9
2022-12-01T06:55:12.369Z,5.9
2022-12-01T06:56:16.259Z,6
2022-12-01T06:57:21.501Z,5.9
2022-12-01T06:58:26.110Z,5.9
2022-12-01T06:59:30.694Z,5.9
2022-12-01T07:00:35.220Z,5.9
2022-12-01T07:01:37.976Z,6
2022-12-01T07:02:40.647Z,6
2022-12-01T07:03:43.928Z,5.9
2022-12-01T07:04:47.049Z,6
2022-12-01T07:05:49.547Z,6
2022-12-01T07:06:52.546Z,6
2022-12-01T07:08:00.386Z,6
2022-12-01T07:09:03.487Z,6
2022-12-01T07:10:06.665Z,6
2022-12-01T07:11:10.548Z,6
2022-12-01T07:12:13.684Z,6
2022-12-01T07:13:17.116Z,6
2022-12-01T07:14:20.167Z,6
2022-12-01T07:15:22.878Z,6
2022-12-01T07:16:26.545Z,6
2022-12-01T07:17:29.942Z,6
2022-12-01T07:18:33.002Z,6
2022-12-01T07:19:35.705Z,6
2022-12-01T07:20:38.543Z,6
2022-12-01T07:21:41.864Z,5.9
2022-12-01T07:22:45.199Z,5.9
2022-12-01T07:23:48.256Z,5.9
2022-12-01T07:24:51.237Z,5.9
2022-12-01T07:25:53.771Z,5.9
2022-12-01T07:26:57.585Z,5.9
2022-12-01T07:28:00.499Z,5.9
2022-12-01T07:29:03.840Z,5.9
2022-12-01T07:30:06.893Z,5.9
2022-12-01T07:31:09.826Z,5.9
2022-12-01T07:32:13.572Z,5.9
2022-12-01T07:33:16.980Z,5.9
2022-12-01T07:34:20.037Z,5.9
2022-12-01T07:35:23.012Z,5.9
2022-12-01T07:36:26.219Z,5.9
2022-12-01T07:37:29.483Z,5.9
2022-12-01T07:38:32.746Z,5.9
2022-12-01T07:39:35.929Z,5.9
2022-12-01T07:40:38.508Z,5.9
2022-12-01T07:41:41.514Z,5.9
2022-12-01T07:42:45.579Z,5.9
2022-12-01T07:43:47.880Z,5.9
2022-12-01T07:44:50.309Z,5.9
2022-12-01T07:45:53.269Z,5.9
2022-12-01T07:46:56.441Z,5.9
2022-12-01T07:47:59.571Z,5.9
2022-12-01T07:49:02.385Z,5.9
2022-12-01T07:50:05.356Z,5.9
2022-12-01T07:51:08.792Z,5.9
2022-12-01T07:52:11.563Z,5.9
2022-12-01T07:53:14.610Z,5.9
2022-12-01T07:54:17.048Z,5.9
2022-12-01T07:55:20.127Z,5.9
2022-12-01T07:56:23.627Z,5.9
2022-12-01T07:57:26.365Z,5.9
2022-12-01T07:58:30.236Z,5.9
2022-12-01T07:59:32.930Z,5.9
2022-12-01T08:00:36.462Z,5.9
2022-12-01T08:01:45.590Z,5.9
2022-12-01T08:02:48.939Z,5.9
2022-12-01T08:03:53.015Z,5.9
2022-12-01T08:04:56.274Z,5.9
2022-12-01T08:05:59.476Z,5.9
2022-12-01T08:07:02.572Z,5.9
2022-12-01T08:08:05.912Z,5.9
2022-12-01T08:09:09.638Z,5.9
2022-12-01T08:10:13.260Z,5.9
2022-12-01T08:11:16.747Z,5.9
2022-12-01T08:12:19.437Z,5.9
2022-12-01T08:13:23.068Z,5.9
2022-12-01T08:14:27.217Z,5.9
2022-12-01T08:15:30.484Z,5.9
2022-12-01T08:16:33.774Z,5.9
2022-12-01T08:17:36.835Z,5.9
2022-12-01T08:18:40.068Z,5.9
2022-12-01T08:19:43.040Z,5.9
2022-12-01T08:20:46.394Z,5.9
2022-12-01T08:21:50.123Z,5.9
2022-12-01T08:22:53.221Z,5.9
2022-12-01T08:23:55.969Z,5.9
2022-12-01T08:24:58.825Z,5.9
2022-12-01T08:26:02.091Z,5.9
2022-12-01T08:27:05.797Z,5.9
2022-12-01T08:28:08.943Z,5.9
2022-12-01T08:29:21.012Z,5.8
2022-12-01T08:30:25.171Z,5.9
2022-12-01T08:31:28.018Z,5.9
2022-12-01T08:32:31.759Z,5.8
2022-12-01T08:33:35.153Z,5.9
2022-12-01T08:34:38.304Z,5.8
2022-12-01T08:35:40.526Z,5.8
2022-12-01T08:36:43.568Z,5.9
2022-12-01T08:37:46.441Z,5.8
2022-12-01T08:38:50.141Z,5.8
2022-12-01T08:39:53.175Z,5.8
2022-12-01T08:40:55.778Z,5.8
2022-12-01T08:41:58.575Z,5.8
2022-12-01T08:43:01.841Z,5.8
2022-12-01T08:44:05.383Z,5.8
2022-12-01T08:45:08.181Z,5.8
2022-12-01T08:46:12.442Z,5.8
2022-12-01T08:47:19.696Z,5.8
2022-12-01T08:48:22.821Z,5.8
2022-12-01T08:49:25.953Z,5.8
2022-12-01T08:50:29.014Z,5.8
2022-12-01T08:51:31.877Z,5.8
2022-12-01T08:52:35.206Z,5.8
2022-12-01T08:53:46.476Z,5.8
2022-12-01T08:54:50.132Z,5.8
2022-12-01T08:55:52.837Z,5.8
2022-12-01T08:56:56.166Z,5.8
2022-12-01T08:57:59.506Z,5.8
2022-12-01T08:59:02.284Z,5.8
2022-12-01T09:00:05.429Z,5.8
2022-12-01T09:01:08.506Z,5.8
2022-12-01T09:02:12.731Z,5.8
2022-12-01T09:03:15.422Z,5.8
2022-12-01T09:04:17.757Z,5.8
2022-12-01T09:05:20.912Z,5.8
2022-12-01T09:06:24.340Z,5.8
2022-12-01T09:07:28.290Z,5.8
2022-12-01T09:08:31.543Z,5.8
2022-12-01T09:09:35.252Z,5.8
2022-12-01T09:10:38.031Z,5.8
2022-12-01T09:11:40.812Z,5.8
2022-12-01T09:12:43.892Z,5.8
2022-12-01T09:13:55.367Z,5.8
2022-12-01T09:14:58.746Z,5.8
2022-12-01T09:16:02.095Z,5.8
2022-12-01T09:17:05.718Z,5.8
2022-12-01T09:18:09.595Z,5.8
2022-12-01T09:19:22.202Z,5.8
2022-12-01T09:20:28.300Z,5.8
2022-12-01T09:21:31.180Z,5.8
2022-12-01T09:22:34.618Z,5.8
2022-12-01T09:23:37.662Z,5.8
2022-12-01T09:24:40.995Z,5.8
2022-12-01T09:25:44.211Z,5.7
2022-12-01T09:26:47.185Z,5.8
2022-12-01T09:27:49.608Z,5.7
2022-12-01T09:28:53.035Z,5.8
2022-12-01T09:29:56.692Z,5.8
2022-12-01T09:30:59.717Z,5.8
2022-12-01T09:32:03.691Z,5.8
2022-12-01T09:33:07.391Z,5.8
2022-12-01T09:34:11.470Z,5.8
2022-12-01T09:35:14.002Z,5.8
2022-12-01T09:36:24.994Z,5.8
2022-12-01T09:37:27.490Z,5.8
2022-12-01T09:38:30.619Z,5.8
2022-12-01T09:39:34.026Z,5.8
2022-12-01T09:40:37.256Z,5.8
2022-12-01T09:41:40.370Z,5.7
2022-12-01T09:42:43.459Z,5.8
2022-12-01T09:43:46.325Z,5.8
2022-12-01T09:44:49.387Z,5.8
2022-12-01T09:45:52.843Z,5.8
2022-12-01T09:46:56.297Z,5.8
2022-12-01T09:47:59.781Z,5.8
2022-12-01T09:49:03.156Z,5.7
2022-12-01T09:50:07.294Z,5.7
2022-12-01T09:51:11.073Z,5.7
2022-12-01T09:52:14.509Z,5.7
2022-12-01T09:53:17.774Z,5.8
2022-12-01T09:54:21.120Z,5.7
2022-12-01T09:55:24.794Z,5.7
2022-12-01T09:56:27.934Z,5.7
2022-12-01T09:57:31.638Z,5.7
2022-12-01T09:58:34.210Z,5.7
2022-12-01T09:59:36.817Z,5.7
2022-12-01T10:00:40.132Z,5.7
2022-12-01T10:01:43.751Z,5.7
2022-12-01T10:02:47.062Z,5.7
2022-12-01T10:03:50.044Z,5.7
2022-12-01T10:04:53.441Z,5.7
2022-12-01T10:06:29.575Z,5.7
2022-12-01T10:07:33.776Z,5.7
2022-12-01T10:08:36.924Z,5.7
2022-12-01T10:09:39.714Z,5.7
2022-12-01T10:10:41.864Z,5.7
2022-12-01T10:11:44.865Z,5.7
2022-12-01T10:12:47.692Z,5.7
2022-12-01T10:13:51.407Z,5.8
2022-12-01T10:14:54.385Z,5.7
2022-12-01T10:15:58.476Z,5.7
2022-12-01T10:17:01.924Z,5.8
2022-12-01T10:18:04.731Z,5.8
2022-12-01T10:19:08.329Z,5.8
2022-12-01T10:20:11.678Z,5.8
2022-12-01T10:21:15.800Z,5.8
2022-12-01T10:22:18.564Z,5.8
2022-12-01T10:23:21.206Z,5.8
2022-12-01T10:24:24.326Z,5.8
2022-12-01T10:25:27.734Z,5.8
2022-12-01T10:26:30.863Z,5.8
2022-12-01T10:27:34.843Z,5.9
2022-12-01T10:28:38.172Z,5.9
2022-12-01T10:29:48.602Z,5.9
2022-12-01T10:30:54.126Z,5.9
2022-12-01T10:31:57.891Z,5.9
2022-12-01T10:33:01.686Z,5.9
2022-12-01T10:34:05.051Z,5.9
2022-12-01T10:35:07.553Z,5.9
2022-12-01T10:36:11.303Z,6
2022-12-01T10:37:15.330Z,6
2022-12-01T10:38:18.890Z,6
2022-12-01T10:39:21.967Z,6
2022-12-01T10:40:25.024Z,5.9
2022-12-01T10:41:28.150Z,6
2022-12-01T10:42:31.926Z,6
2022-12-01T10:43:35.629Z,6
2022-12-01T10:44:39.110Z,6
2022-12-01T10:45:42.135Z,6
2022-12-01T10:46:46.133Z,6
2022-12-01T10:47:48.910Z,6
2022-12-01T10:48:56.793Z,6
2022-12-01T10:50:00.130Z,6
2022-12-01T10:51:02.588Z,6
2022-12-01T10:52:05.360Z,6
2022-12-01T10:53:09.555Z,6
2022-12-01T10:54:12.636Z,6
2022-12-01T10:55:15.435Z,6
2022-12-01T10:56:18.558Z,6
2022-12-01T10:57:21.715Z,6.1
2022-12-01T10:58:25.041Z,6
2022-12-01T10:59:27.833Z,6
2022-12-01T11:01:01.858Z,6
2022-12-01T11:02:07.169Z,6.1
2022-12-01T11:03:11.458Z,6
2022-12-01T11:04:25.044Z,6
2022-12-01T11:05:28.091Z,6
2022-12-01T11:06:31.770Z,6
2022-12-01T11:07:35.391Z,6
2022-12-01T11:08:39.819Z,6
2022-12-01T11:09:43.172Z,6
2022-12-01T11:10:46.585Z,6
2022-12-01T11:11:49.921Z,6
2022-12-01T11:12:53.283Z,6
2022-12-01T11:13:56.716Z,6
2022-12-01T11:15:00.343Z,6
2022-12-01T11:16:03.681Z,6
2022-12-01T11:17:07.983Z,6
2022-12-01T11:18:11.581Z,6
2022-12-01T11:19:14.527Z,6
2022-12-01T11:20:23.139Z,6
2022-12-01T11:21:26.735Z,6
2022-12-01T11:22:29.797Z,6
2022-12-01T11:23:33.255Z,6
2022-12-01T11:24:37.349Z,6
2022-12-01T11:25:40.627Z,6
2022-12-01T11:26:43.951Z,6
2022-12-01T11:27:46.988Z,6
2022-12-01T11:28:50.040Z,6
2022-12-01T11:29:54.034Z,6
2022-12-01T11:30:58.022Z,6
2022-12-01T11:32:01.742Z,6
2022-12-01T11:33:05.730Z,6.1
2022-12-01T11:34:09.087Z,6.1
2022-12-01T11:35:12.331Z,6.1
2022-12-01T11:36:17.266Z,6.1
2022-12-01T11:37:19.671Z,6.1
2022-12-01T11:38:31.473Z,6.1
2022-12-01T11:39:35.496Z,6.1
2022-12-01T11:40:39.336Z,6.1
2022-12-01T11:41:42.948Z,6.1
2022-12-01T11:42:46.306Z,6.1
2022-12-01T11:44:09.201Z,6.1
2022-12-01T11:45:54.814Z,6.1
2022-12-01T11:47:25.176Z,6.2
2022-12-01T11:48:28.678Z,6.2
2022-12-01T11:49:32.313Z,6.2
2022-12-01T11:50:35.946Z,6.2
2022-12-01T11:51:41.371Z,6.2
2022-12-01T11:52:45.776Z,6.2
2022-12-01T11:53:50.140Z,6.2
2022-12-01T11:54:54.320Z,6.2
2022-12-01T11:55:58.496Z,6.2
2022-12-01T11:57:35.395Z,6.2
2022-12-01T11:58:39.173Z,6.2
2022-12-01T11:59:43.034Z,6.2
2022-12-01T12:00:46.124Z,6.2
2022-12-01T12:01:48.843Z,6.2
2022-12-01T12:02:52.370Z,6.2
2022-12-01T12:03:55.628Z,6.2
2022-12-01T12:05:00.150Z,6.1
2022-12-01T12:06:41.044Z,6.2
2022-12-01T12:07:46.048Z,6.2
2022-12-01T12:08:51.536Z,6.2
2022-12-01T12:09:56.168Z,6.2
2022-12-01T12:11:00.436Z,6.2
2022-12-01T12:12:05.879Z,6.2
2022-12-01T12:13:09.484Z,6.2
2022-12-01T12:14:12.963Z,6.2
2022-12-01T12:15:16.895Z,6.2
2022-12-01T12:16:19.784Z,6.3
2022-12-01T12:17:23.088Z,6.3
2022-12-01T12:18:26.711Z,6.3
2022-12-01T12:20:09.061Z,6.3
2022-12-01T12:21:15.790Z,6.3
2022-12-01T12:22:19.232Z,6.3
2022-12-01T12:23:22.607Z,6.4
2022-12-01T12:24:26.213Z,6.4
2022-12-01T12:25:28.195Z,6.4
2022-12-01T12:26:31.303Z,6.4
2022-12-01T12:27:35.375Z,6.4
2022-12-01T12:28:38.103Z,6.4
2022-12-01T12:29:40.808Z,6.4
2022-12-01T12:30:44.091Z,6.4
2022-12-01T12:31:48.069Z,6.4
2022-12-01T12:32:50.921Z,6.4
2022-12-01T12:33:54.070Z,6.4
2022-12-01T12:34:57.122Z,6.4
2022-12-01T12:36:00.488Z,6.4
2022-12-01T12:37:03.256Z,6.4
2022-12-01T12:38:06.648Z,6.4
2022-12-01T12:39:17.372Z,6.4
2022-12-01T12:40:20.629Z,6.4
2022-12-01T12:41:24.100Z,6.4
2022-12-01T12:42:26.524Z,6.3
2022-12-01T12:43:30.386Z,6.3
2022-12-01T12:44:38.392Z,6.3
2022-12-01T12:45:41.787Z,6.3
2022-12-01T12:46:44.827Z,6.3
2022-12-01T12:47:48.983Z,6.3
2022-12-01T12:49:21.170Z,6.3
2022-12-01T12:50:25.241Z,6.3
2022-12-01T12:51:28.093Z,6.3
2022-12-01T12:52:31.426Z,6.3
2022-12-01T12:53:33.292Z,6.3
2022-12-01T12:54:36.971Z,6.3
2022-12-01T12:55:41.358Z,6.3
2022-12-01T12:56:44.550Z,6.3
2022-12-01T12:57:48.243Z,6.3
2022-12-01T12:58:52.071Z,6.3
2022-12-01T12:59:55.123Z,6.3
2022-12-01T13:00:57.892Z,6.3
2022-12-01T13:02:01.147Z,6.3
2022-12-01T13:03:04.392Z,6.3
2022-12-01T13:04:08.058Z,6.3
2022-12-01T13:05:11.265Z,6.3
2022-12-01T13:06:14.040Z,6.2
2022-12-01T13:07:17.462Z,6.2
2022-12-01T13:08:20.231Z,6.2
2022-12-01T13:09:23.567Z,6.2
2022-12-01T13:10:26.644Z,6.3
2022-12-01T13:11:29.615Z,6.3
2022-12-01T13:12:32.677Z,6.3
2022-12-01T13:13:36.086Z,6.3
2022-12-01T13:14:40.158Z,6.3
2022-12-01T13:15:43.135Z,6.3
2022-12-01T13:16:46.454Z,6.3
2022-12-01T13:17:49.433Z,6.3
2022-12-01T13:18:52.203Z,6.3
2022-12-01T13:19:55.078Z,6.3
2022-12-01T13:20:58.449Z,6.3
2022-12-01T13:22:01.881Z,6.3
2022-12-01T13:23:05.906Z,6.3
2022-12-01T13:24:09.685Z,6.2
2022-12-01T13:25:12.825Z,6.2
2022-12-01T13:26:16.291Z,6.2
2022-12-01T13:27:19.704Z,6.2
2022-12-01T13:28:22.706Z,6.2
2022-12-01T13:29:25.950Z,6.2
2022-12-01T13:30:29.763Z,6.2
2022-12-01T13:31:33.407Z,6.2
2022-12-01T13:32:36.411Z,6.2
2022-12-01T13:33:38.942Z,6.2
2022-12-01T13:34:42.016Z,6.1
2022-12-01T13:35:44.441Z,6.1
2022-12-01T13:36:48.326Z,6.1
2022-12-01T13:37:51.019Z,6.1
2022-12-01T13:38:54.076Z,6.1
2022-12-01T13:39:56.949Z,6.1
2022-12-01T13:40:59.923Z,6.1
2022-12-01T13:42:02.996Z,6.1
2022-12-01T13:43:11.612Z,6
2022-12-01T13:44:20.673Z,6.1
2022-12-01T13:45:23.638Z,6.1
2022-12-01T13:46:27.905Z,6.1
2022-12-01T13:47:31.430Z,6.1
2022-12-01T13:48:34.390Z,6.1
2022-12-01T13:49:37.559Z,6
2022-12-01T13:50:40.417Z,6
2022-12-01T13:51:43.550Z,6
2022-12-01T13:52:46.321Z,6.1
2022-12-01T13:53:49.380Z,6.1
2022-12-01T13:54:52.461Z,6.1
2022-12-01T13:55:55.872Z,6.1
2022-12-01T13:56:59.349Z,6.1
2022-12-01T13:58:02.066Z,6
2022-12-01T13:59:05.747Z,6
2022-12-01T14:00:08.743Z,6
2022-12-01T14:01:12.557Z,6
2022-12-01T14:02:17.464Z,6
2022-12-01T14:03:21.306Z,6
2022-12-01T14:04:25.192Z,6
2022-12-01T14:05:28.239Z,6
2022-12-01T14:06:32.054Z,6
2022-12-01T14:07:36.063Z,6
2022-12-01T14:08:39.479Z,6
2022-12-01T14:09:43.317Z,6
2022-12-01T14:10:46.355Z,6
2022-12-01T14:11:49.136Z,6
2022-12-01T14:12:52.343Z,6
2022-12-01T14:13:55.529Z,5.9
2022-12-01T14:15:00.206Z,6
2022-12-01T14:16:03.996Z,5.9
2022-12-01T14:17:07.245Z,5.9
2022-12-01T14:18:11.373Z,5.9
2022-12-01T14:19:14.246Z,5.9
2022-12-01T14:20:17.954Z,5.9
2022-12-01T14:21:20.899Z,5.9
2022-12-01T14:22:25.071Z,5.9
2022-12-01T14:23:28.623Z,5.9
2022-12-01T14:24:31.689Z,5.9
2022-12-01T14:25:35.573Z,5.9
2022-12-01T14:26:45.688Z,5.9
2022-12-01T14:27:49.410Z,5.9
2022-12-01T14:28:52.819Z,5.9
2022-12-01T14:29:55.824Z,5.9
2022-12-01T14:30:59.204Z,5.9
2022-12-01T14:32:02.638Z,5.9
2022-12-01T14:33:05.825Z,5.9
2022-12-01T14:34:19.563Z,5.9
2022-12-01T14:35:22.572Z,5.8
2022-12-01T14:36:25.740Z,5.9
2022-12-01T14:37:28.785Z,5.8
2022-12-01T14:38:31.843Z,5.8
2022-12-01T14:39:35.179Z,5.8
2022-12-01T14:40:38.654Z,5.8
2022-12-01T14:41:41.986Z,5.8
2022-12-01T14:42:45.239Z,5.8
2022-12-01T14:43:48.641Z,5.8
2022-12-01T14:44:53.695Z,5.8
2022-12-01T14:45:57.269Z,5.8
2022-12-01T14:47:01.549Z,5.8
2022-12-01T14:48:04.924Z,5.7